Baumholder, Germany

6:32 AM CEST on March 30, 2015 (GMT +0200)
IRHEINLA46 | | Change Station
CLOSE
Current Station
Personal Weather Station
Location: Idar-Oberstein, RHEINLAND-PFALZ
Elevation: 971 ft
Nearby Weather Stations

Elev 971 ft 49.72 °N, 7.30 °E | Updated 2 minutes ago

Light Drizzle
Light Drizzle
42.6 °F
Feels Like 38 °F
N
8.3
Wind Variable Wind from SSW
Gusts 0.0 mph

Today
High -- | Low -- °F
--% Chance of Precip.
Yesterday
High -- | Low -- °F
Precip. -- in
7:13 AM 7:58 PM
Waxing Gibbous, 76% visible
Pressure 29.54 in
Visibility 6.2 miles
Clouds Mostly Cloudy 2100 ft
Overcast 3000 ft
Windchill 38 °F
Dew Point 38 °F
Humidity 84%
Rainfall 0.42 in
Snow Depth Not available.
UV 0 out of 12
Pollen Not available.
Air Quality Not available.
Flu Activity Not available.
SPECI ETAR 300420Z AUTO 25013KT 9999 -DZ BKN021 OVC030 08/06 A2954 RMK AO2 DZB20 CIG 021V030

More Conditions Fewer Conditions

Pressure 29.54 in
Visibility 6.2 miles
Clouds Mostly Cloudy 2100 ft
Overcast 3000 ft
Windchill 38 °F
Dew Point 38 °F
Humidity 84%
Rainfall 0.42 in
Snow Depth Not available.
UV 0 out of 12
Pollen Not available.
Air Quality Not available.
Flu Activity Not available.
SPECI ETAR 300420Z AUTO 25013KT 9999 -DZ BKN021 OVC030 08/06 A2954 RMK AO2 DZB20 CIG 021V030

More Conditions Fewer Conditions

10-Day Weather Forecast

Almanac

Astronomy

Mar. 30, 2015 Rise Set
Actual Time
Civil Twilight
Nautical Twilight
Astronomical Twilight
Moon
Length of Visible Light
Length of Day
Tomorrow will be .
, % of the Moon is Illuminated

Today's Extremes

Country Highs Country Lows

Community

WunderPhotos

Upload Photos

1,809,433 photos uploaded!

WunderBlogs® & News

Nearby

Air Quality

  Air Quality AQ Index Pollutant
Not available.

Snow Depth

Station Depth Elevation

Earthquake Activity

City Distance Mag. Time & Date
Minimum magnitude displayed is 2.5.

Coastal Water Temperatures

Place Temperature

Stations

Nearby Weather Stations

Station Location Temp. Windchill Dew Point Humidity Wind Precip. Elev Updated Type